createdAt,value
2019-04-27T00:00:58.393Z,2.13
2019-04-27T00:03:45.375Z,1.83
2019-04-27T00:06:16.525Z,1.90
2019-04-27T00:08:47.609Z,2.00
2019-04-27T00:11:23.018Z,1.97
2019-04-27T00:13:53.586Z,2.03
2019-04-27T00:16:36.574Z,2.20
2019-04-27T00:19:27.385Z,2.07
2019-04-27T00:22:14.664Z,2.20
2019-04-27T00:24:47.366Z,2.10
2019-04-27T00:27:16.846Z,2.20
2019-04-27T00:29:46.276Z,1.90
2019-04-27T00:32:15.803Z,2.00
2019-04-27T00:34:45.491Z,2.13
2019-04-27T00:37:34.016Z,1.90
2019-04-27T00:40:06.587Z,1.90
2019-04-27T00:42:36.067Z,1.90
2019-04-27T00:45:08.097Z,2.10
2019-04-27T00:47:37.689Z,1.90
2019-04-27T00:50:07.880Z,2.13
2019-04-27T00:52:37.335Z,2.30
2019-04-27T00:55:07.746Z,2.10
2019-04-27T00:57:50.788Z,2.17
2019-04-27T01:00:25.013Z,2.20
2019-04-27T01:02:56.102Z,2.40
2019-04-27T01:05:27.413Z,2.23
2019-04-27T01:07:57.013Z,2.00
2019-04-27T01:10:26.526Z,2.27
2019-04-27T01:12:56.058Z,2.23
2019-04-27T01:15:25.769Z,2.47
2019-04-27T01:18:09.556Z,2.47
2019-04-27T01:20:26.498Z,2.40
2019-04-27T01:22:55.956Z,2.90
2019-04-27T01:25:28.922Z,2.60
2019-04-27T01:27:59.917Z,2.90
2019-04-27T01:30:36.579Z,3.00
2019-04-27T01:33:06.077Z,2.60
2019-04-27T01:35:35.530Z,3.10
2019-04-27T01:38:04.997Z,3.00
2019-04-27T01:40:34.472Z,3.37
2019-04-27T01:43:03.994Z,3.30
2019-04-27T01:45:33.532Z,3.40
2019-04-27T01:48:03.000Z,3.43
2019-04-27T01:50:32.466Z,3.57
2019-04-27T01:53:01.927Z,3.43
2019-04-27T01:55:31.494Z,3.70
2019-04-27T01:58:00.978Z,3.27
2019-04-27T02:00:55.229Z,3.17
2019-04-27T02:03:41.947Z,3.43
2019-04-27T02:06:14.369Z,3.30
2019-04-27T02:08:43.886Z,3.50
2019-04-27T02:11:13.478Z,3.70
2019-04-27T02:13:43.033Z,3.10
2019-04-27T02:16:12.719Z,3.43
2019-04-27T02:18:42.162Z,3.57
2019-04-27T02:21:11.693Z,3.23
2019-04-27T02:23:41.188Z,3.73
2019-04-27T02:26:10.735Z,3.87
2019-04-27T02:28:44.475Z,3.37
2019-04-27T02:31:31.390Z,3.73
2019-04-27T02:34:02.502Z,3.27
2019-04-27T02:36:32.047Z,3.20
2019-04-27T02:39:01.541Z,3.30
2019-04-27T02:41:31.042Z,3.37
2019-04-27T02:44:09.700Z,3.23
2019-04-27T02:46:39.721Z,2.90
2019-04-27T02:49:10.559Z,3.30
2019-04-27T02:51:44.440Z,3.13
2019-04-27T02:54:13.911Z,3.17
2019-04-27T02:56:43.415Z,3.30
2019-04-27T02:59:12.892Z,3.03
2019-04-27T03:01:53.241Z,3.00
2019-04-27T03:04:21.370Z,3.30
2019-04-27T03:06:50.866Z,3.13
2019-04-27T03:09:20.796Z,3.00
2019-04-27T03:11:50.331Z,3.47
2019-04-27T03:14:40.130Z,2.80
2019-04-27T03:17:26.173Z,3.17
2019-04-27T03:20:00.243Z,3.00
2019-04-27T03:22:34.325Z,3.23
2019-04-27T03:25:15.202Z,3.27
2019-04-27T03:27:44.841Z,3.03
2019-04-27T03:30:15.958Z,3.10
2019-04-27T03:32:45.536Z,3.07
2019-04-27T03:35:15.148Z,3.10
2019-04-27T03:37:45.462Z,3.40
2019-04-27T03:40:15.006Z,2.83
2019-04-27T03:42:46.237Z,3.00
2019-04-27T03:45:15.926Z,3.03
2019-04-27T03:47:45.738Z,2.90
2019-04-27T03:50:16.882Z,2.87
2019-04-27T03:52:50.850Z,3.00
2019-04-27T03:55:39.843Z,2.60
2019-04-27T03:58:21.733Z,3.10
2019-04-27T04:00:52.221Z,2.80
2019-04-27T04:03:21.675Z,3.10
2019-04-27T04:05:51.917Z,2.80
2019-04-27T04:08:21.930Z,2.83
2019-04-27T04:11:02.760Z,2.80
2019-04-27T04:13:39.076Z,2.90
2019-04-27T04:16:12.072Z,2.67
2019-04-27T04:19:00.851Z,3.13
2019-04-27T04:21:30.059Z,2.90
2019-04-27T04:24:00.948Z,3.00
2019-04-27T04:26:32.670Z,2.80
2019-04-27T04:29:02.660Z,3.00
2019-04-27T04:31:33.070Z,3.20
2019-04-27T04:34:03.353Z,3.30
2019-04-27T04:36:32.871Z,3.13
2019-04-27T04:39:02.456Z,3.03
2019-04-27T04:41:43.577Z,3.00
2019-04-27T04:44:15.069Z,2.97
2019-04-27T04:47:00.219Z,2.93
2019-04-27T04:49:29.726Z,3.00
2019-04-27T04:51:59.607Z,3.10
2019-04-27T04:54:29.965Z,3.60
2019-04-27T04:56:59.823Z,2.93
2019-04-27T04:59:29.348Z,3.43
2019-04-27T05:02:01.851Z,3.27
2019-04-27T05:04:29.998Z,3.10
2019-04-27T05:06:59.583Z,3.30
2019-04-27T05:09:29.573Z,2.87
2019-04-27T05:11:59.252Z,2.93
2019-04-27T05:14:29.012Z,3.00
2019-04-27T05:16:59.234Z,3.00
2019-04-27T05:19:29.732Z,3.20
2019-04-27T05:22:00.098Z,3.20
2019-04-27T05:24:29.559Z,2.90
2019-04-27T05:26:59.203Z,3.20
2019-04-27T05:29:29.275Z,3.10
2019-04-27T05:31:59.380Z,3.30
2019-04-27T05:34:29.544Z,3.00
2019-04-27T05:37:02.150Z,3.40
2019-04-27T05:39:31.599Z,3.27
2019-04-27T05:42:01.079Z,3.40
2019-04-27T05:44:56.359Z,3.27
2019-04-27T05:47:43.369Z,3.57
2019-04-27T05:50:18.409Z,3.40
2019-04-27T05:52:45.302Z,2.80
2019-04-27T05:55:14.917Z,3.10
2019-04-27T05:57:44.430Z,3.10
2019-04-27T06:00:19.183Z,2.90
2019-04-27T06:02:50.325Z,3.10
2019-04-27T06:05:23.033Z,3.60
2019-04-27T06:07:52.707Z,3.60
2019-04-27T06:10:22.242Z,3.30
2019-04-27T06:12:51.652Z,3.57
2019-04-27T06:15:21.176Z,3.47
2019-04-27T06:17:50.672Z,3.50
2019-04-27T06:20:20.195Z,3.83
2019-04-27T06:22:49.681Z,3.93
2019-04-27T06:25:21.441Z,3.60
2019-04-27T06:27:50.369Z,4.07
2019-04-27T06:30:19.964Z,4.00
2019-04-27T06:32:49.585Z,4.00
2019-04-27T06:35:19.118Z,4.50
2019-04-27T06:37:49.232Z,4.63
2019-04-27T06:40:18.925Z,4.80
2019-04-27T06:42:48.675Z,5.03
2019-04-27T06:45:19.658Z,4.57
2019-04-27T06:47:51.214Z,4.60
2019-04-27T06:50:20.397Z,4.93
2019-04-27T06:52:50.004Z,5.23
2019-04-27T06:55:19.549Z,4.87
2019-04-27T06:57:49.236Z,5.10
2019-04-27T07:00:19.166Z,5.80
2019-04-27T07:02:49.268Z,4.93
2019-04-27T07:05:20.336Z,5.03
2019-04-27T07:07:50.050Z,5.23
2019-04-27T07:10:19.495Z,5.47
2019-04-27T07:12:49.235Z,5.40
2019-04-27T07:15:20.406Z,4.70
2019-04-27T07:17:50.327Z,4.33
2019-04-27T07:20:19.871Z,4.73
2019-04-27T07:22:49.735Z,7.07
2019-04-27T07:25:19.434Z,6.97
2019-04-27T07:27:49.467Z,7.27
2019-04-27T07:30:19.216Z,6.00
2019-04-27T07:32:48.894Z,5.63
2019-04-27T07:35:19.639Z,5.30
2019-04-27T07:37:49.423Z,5.87
2019-04-27T07:40:18.925Z,5.80
2019-04-27T07:42:50.032Z,5.57
2019-04-27T07:45:24.217Z,5.87
2019-04-27T07:47:54.742Z,5.53
2019-04-27T07:50:24.229Z,5.57
2019-04-27T07:52:53.781Z,6.03
2019-04-27T07:55:23.375Z,5.50
2019-04-27T07:57:52.843Z,5.67
2019-04-27T08:00:22.512Z,5.97
2019-04-27T08:02:51.993Z,5.60
2019-04-27T08:05:21.513Z,6.63
2019-04-27T08:07:51.033Z,5.60
2019-04-27T08:10:20.516Z,6.13
2019-04-27T08:12:50.026Z,5.70
2019-04-27T08:15:19.633Z,6.10
2019-04-27T08:17:49.387Z,5.73
2019-04-27T08:20:21.033Z,6.47
2019-04-27T08:22:50.121Z,6.63
2019-04-27T08:25:19.651Z,6.80
2019-04-27T08:28:06.703Z,7.13
2019-04-27T08:30:44.046Z,3.70
2019-04-27T08:33:15.133Z,2.80
2019-04-27T08:35:44.542Z,2.87
2019-04-27T08:38:14.036Z,2.40
2019-04-27T08:40:43.518Z,2.77
2019-04-27T08:43:13.007Z,2.87
2019-04-27T08:45:42.566Z,2.93
2019-04-27T08:48:11.993Z,2.87
2019-04-27T08:50:42.166Z,3.60
2019-04-27T08:53:11.852Z,2.57
2019-04-27T08:55:41.336Z,3.50
2019-04-27T08:58:10.791Z,3.50
2019-04-27T09:00:41.798Z,3.70
2019-04-27T09:03:11.261Z,3.63
2019-04-27T09:05:40.749Z,3.27
2019-04-27T09:08:18.975Z,3.27
2019-04-27T09:10:59.447Z,2.97
2019-04-27T09:13:30.671Z,2.83
2019-04-27T09:16:18.671Z,3.10
2019-04-27T09:18:49.942Z,2.97
2019-04-27T09:21:19.348Z,3.10
2019-04-27T09:23:48.971Z,2.80
2019-04-27T09:26:18.909Z,3.50
2019-04-27T09:28:49.276Z,2.93
2019-04-27T09:31:19.602Z,2.90
2019-04-27T09:33:49.231Z,3.07
2019-04-27T09:36:18.743Z,2.90
2019-04-27T09:38:48.277Z,3.10
2019-04-27T09:41:17.763Z,2.83
2019-04-27T09:43:47.240Z,3.30
2019-04-27T09:46:16.673Z,3.20
2019-04-27T09:48:46.702Z,3.03
2019-04-27T09:51:19.522Z,3.10
2019-04-27T09:53:50.512Z,3.30
2019-04-27T09:56:20.018Z,2.90
2019-04-27T09:58:49.542Z,3.43
2019-04-27T10:01:19.053Z,3.10
2019-04-27T10:03:48.643Z,3.30
2019-04-27T10:06:18.094Z,3.00
2019-04-27T10:08:47.634Z,2.80
2019-04-27T10:11:17.391Z,2.80
2019-04-27T10:13:46.842Z,3.27
2019-04-27T10:16:16.363Z,3.27
2019-04-27T10:18:46.091Z,3.10
2019-04-27T10:21:16.308Z,3.00
2019-04-27T10:23:47.042Z,3.13
2019-04-27T10:26:16.673Z,2.70
2019-04-27T10:28:46.147Z,3.30
2019-04-27T10:31:15.684Z,2.70
2019-04-27T10:33:45.832Z,2.73
2019-04-27T10:36:16.968Z,3.07
2019-04-27T10:38:46.418Z,3.00
2019-04-27T10:41:15.919Z,3.03
2019-04-27T10:43:45.394Z,2.60
2019-04-27T10:46:15.641Z,1.80
2019-04-27T10:48:45.688Z,1.30
2019-04-27T10:51:16.031Z,1.80
2019-04-27T10:53:45.746Z,1.47
2019-04-27T10:56:15.280Z,1.53
2019-04-27T10:58:45.701Z,1.30
2019-04-27T11:01:15.606Z,1.10
2019-04-27T11:03:53.016Z,1.30
2019-04-27T11:06:42.623Z,1.00
2019-04-27T11:09:13.713Z,1.10
2019-04-27T11:11:43.256Z,1.40
2019-04-27T11:14:12.908Z,1.60
2019-04-27T11:16:42.638Z,1.33
2019-04-27T11:19:12.085Z,1.37
2019-04-27T11:21:41.570Z,1.37
2019-04-27T11:24:11.171Z,1.60
2019-04-27T11:26:40.720Z,1.70
2019-04-27T11:29:10.393Z,1.60
2019-04-27T11:31:39.910Z,1.80
2019-04-27T11:34:09.445Z,1.57
2019-04-27T11:36:40.634Z,1.93
2019-04-27T11:39:18.676Z,1.90
2019-04-27T11:41:47.299Z,2.00
2019-04-27T11:44:17.055Z,2.00
2019-04-27T11:46:47.466Z,2.10
2019-04-27T11:49:17.354Z,2.30
2019-04-27T11:51:46.806Z,2.40
2019-04-27T11:54:16.297Z,2.40
2019-04-27T11:56:47.197Z,2.60
2019-04-27T11:59:16.923Z,2.70
2019-04-27T12:01:46.412Z,3.17
2019-04-27T12:04:16.168Z,3.10
2019-04-27T12:06:46.262Z,2.93
2019-04-27T12:09:15.917Z,3.00
2019-04-27T12:11:45.457Z,3.33
2019-04-27T12:14:14.939Z,3.30
2019-04-27T12:16:46.066Z,3.30
2019-04-27T12:19:16.415Z,2.87
2019-04-27T12:21:46.348Z,3.20
2019-04-27T12:24:16.110Z,3.10
2019-04-27T12:27:00.765Z,3.60
2019-04-27T12:29:34.424Z,3.30
2019-04-27T12:32:05.597Z,3.33
2019-04-27T12:34:36.117Z,3.07
2019-04-27T12:37:07.272Z,3.40
2019-04-27T12:39:36.863Z,3.63
2019-04-27T12:42:06.355Z,3.50
2019-04-27T12:44:40.488Z,3.30
2019-04-27T12:47:07.165Z,3.70
2019-04-27T12:49:36.759Z,3.83
2019-04-27T12:52:07.236Z,3.63
2019-04-27T12:54:54.268Z,3.33
2019-04-27T12:57:41.307Z,3.13
2019-04-27T13:00:12.818Z,3.10
2019-04-27T13:02:42.264Z,3.30
2019-04-27T13:05:12.047Z,2.97
2019-04-27T13:07:41.487Z,3.13
2019-04-27T13:10:11.921Z,2.70
2019-04-27T13:12:41.645Z,2.47
2019-04-27T13:15:11.882Z,2.43
2019-04-27T13:17:41.526Z,1.70
2019-04-27T13:20:11.433Z,1.20
2019-04-27T13:22:40.966Z,1.00
2019-04-27T13:25:11.550Z,1.10
2019-04-27T13:27:41.034Z,1.03
2019-04-27T13:30:12.030Z,1.30
2019-04-27T13:32:41.490Z,1.20
2019-04-27T13:35:11.577Z,1.30
2019-04-27T13:37:42.712Z,1.70
2019-04-27T13:40:17.059Z,1.63
2019-04-27T13:43:04.261Z,1.90
2019-04-27T13:45:41.611Z,2.00
2019-04-27T13:48:18.520Z,1.83
2019-04-27T13:50:52.296Z,2.00
2019-04-27T13:53:21.748Z,1.80
2019-04-27T13:55:51.212Z,1.90
2019-04-27T13:58:20.490Z,1.80
2019-04-27T14:00:49.939Z,1.37
2019-04-27T14:03:20.962Z,1.50
2019-04-27T14:05:52.494Z,1.40
2019-04-27T14:08:21.902Z,1.67
2019-04-27T14:10:51.503Z,1.30
2019-04-27T14:13:20.938Z,1.33
2019-04-27T14:15:50.430Z,1.20
2019-04-27T14:18:19.932Z,1.30
2019-04-27T14:20:49.419Z,1.13
2019-04-27T14:23:23.267Z,1.20
2019-04-27T14:25:52.741Z,1.00
2019-04-27T14:28:22.304Z,1.20
2019-04-27T14:30:53.323Z,1.00
2019-04-27T14:33:22.951Z,1.20
2019-04-27T14:35:52.417Z,1.50
2019-04-27T14:38:21.960Z,1.67
2019-04-27T14:40:51.537Z,2.03
2019-04-27T14:43:20.994Z,2.30
2019-04-27T14:45:50.593Z,2.33
2019-04-27T14:48:20.117Z,2.00
2019-04-27T14:50:49.607Z,2.03
2019-04-27T14:53:19.265Z,2.00
2019-04-27T14:55:49.107Z,2.90
2019-04-27T14:58:19.323Z,2.93
2019-04-27T15:00:49.879Z,3.10
2019-04-27T15:03:19.586Z,2.60
2019-04-27T15:05:49.604Z,2.70
2019-04-27T15:08:20.458Z,2.60
2019-04-27T15:10:50.045Z,2.00
2019-04-27T15:13:19.620Z,2.03
2019-04-27T15:15:49.173Z,2.70
2019-04-27T15:18:19.769Z,2.20
2019-04-27T15:20:49.381Z,2.87
2019-04-27T15:23:20.091Z,2.60
2019-04-27T15:25:50.088Z,2.60
2019-04-27T15:28:27.262Z,2.40
2019-04-27T15:30:59.512Z,2.53
2019-04-27T15:33:53.283Z,2.53
2019-04-27T15:36:36.155Z,2.80
2019-04-27T15:39:12.783Z,2.70
2019-04-27T15:41:48.440Z,2.40
2019-04-27T15:44:19.671Z,2.63
2019-04-27T15:46:49.196Z,2.90
2019-04-27T15:49:18.659Z,3.00
2019-04-27T15:51:50.640Z,3.07
2019-04-27T15:54:22.270Z,2.90
2019-04-27T15:56:50.603Z,2.93
2019-04-27T15:59:21.745Z,2.77
2019-04-27T16:01:51.332Z,2.83
2019-04-27T16:04:20.859Z,2.80
2019-04-27T16:06:50.313Z,2.80
2019-04-27T16:09:25.383Z,2.57
2019-04-27T16:11:58.394Z,3.47
2019-04-27T16:14:24.216Z,2.80
2019-04-27T16:16:53.743Z,2.83
2019-04-27T16:19:23.220Z,2.83
2019-04-27T16:21:54.097Z,3.30
2019-04-27T16:24:24.042Z,3.10
2019-04-27T16:26:56.087Z,3.63
2019-04-27T16:29:28.133Z,3.10
2019-04-27T16:31:56.007Z,3.00
2019-04-27T16:34:25.492Z,2.73
2019-04-27T16:36:54.989Z,3.30
2019-04-27T16:39:28.700Z,3.70
2019-04-27T16:41:58.789Z,3.87
2019-04-27T16:44:28.334Z,3.17
2019-04-27T16:46:58.347Z,3.43
2019-04-27T16:49:29.007Z,3.40
2019-04-27T16:51:59.030Z,4.00
2019-04-27T16:54:28.725Z,4.00
2019-04-27T16:57:03.214Z,3.70
2019-04-27T16:59:43.564Z,4.17
2019-04-27T17:02:01.651Z,4.53
2019-04-27T17:04:31.490Z,4.70
2019-04-27T17:07:01.035Z,4.13
2019-04-27T17:09:30.527Z,4.30
2019-04-27T17:12:00.065Z,3.93
2019-04-27T17:14:36.425Z,4.03
2019-04-27T17:17:10.713Z,4.50
2019-04-27T17:19:41.271Z,4.50
2019-04-27T17:22:14.731Z,4.50
2019-04-27T17:24:46.553Z,4.50
2019-04-27T17:27:16.483Z,3.53
2019-04-27T17:29:49.980Z,3.70
2019-04-27T17:32:19.956Z,3.30
2019-04-27T17:34:49.661Z,3.33
2019-04-27T17:37:19.115Z,3.27
2019-04-27T17:39:48.828Z,3.50
2019-04-27T17:42:18.765Z,3.63
2019-04-27T17:44:49.048Z,3.43
2019-04-27T17:47:19.998Z,3.30
2019-04-27T17:49:49.740Z,3.73
2019-04-27T17:52:19.204Z,3.53
2019-04-27T17:54:48.675Z,3.47
2019-04-27T17:57:18.204Z,4.10
2019-04-27T17:59:51.413Z,3.33
2019-04-27T18:02:19.014Z,3.30
2019-04-27T18:04:48.536Z,3.47
2019-04-27T18:07:19.055Z,3.73
2019-04-27T18:09:48.886Z,3.17
2019-04-27T18:12:18.473Z,3.40
2019-04-27T18:14:48.086Z,3.70
2019-04-27T18:17:19.829Z,3.60
2019-04-27T18:19:51.140Z,3.20
2019-04-27T18:22:20.633Z,3.30
2019-04-27T18:25:03.437Z,3.27
2019-04-27T18:27:33.561Z,3.43
2019-04-27T18:30:10.515Z,3.53
2019-04-27T18:32:40.479Z,3.17
2019-04-27T18:35:10.118Z,3.33
2019-04-27T18:37:39.635Z,3.03
2019-04-27T18:40:09.402Z,3.00
2019-04-27T18:42:38.910Z,3.27
2019-04-27T18:45:08.711Z,3.40
2019-04-27T18:47:40.571Z,3.27
2019-04-27T18:50:14.702Z,3.93
2019-04-27T18:52:50.659Z,3.43
2019-04-27T18:55:20.940Z,3.30
2019-04-27T18:57:54.234Z,3.53
2019-04-27T19:00:22.609Z,3.90
2019-04-27T19:02:52.126Z,3.50
2019-04-27T19:05:21.746Z,3.60
2019-04-27T19:07:51.043Z,3.30
2019-04-27T19:10:20.770Z,3.90
2019-04-27T19:12:50.190Z,3.77
2019-04-27T19:15:19.738Z,3.73
2019-04-27T19:17:49.243Z,3.60
2019-04-27T19:20:18.909Z,3.50
2019-04-27T19:22:49.205Z,4.30
2019-04-27T19:25:20.371Z,3.53
2019-04-27T19:27:51.502Z,4.30
2019-04-27T19:30:25.061Z,3.50
2019-04-27T19:32:54.518Z,3.37
2019-04-27T19:35:23.965Z,4.10
2019-04-27T19:37:53.431Z,3.93
2019-04-27T19:40:22.936Z,3.53
2019-04-27T19:42:52.437Z,3.40
2019-04-27T19:45:21.967Z,3.83
2019-04-27T19:47:51.456Z,4.10
2019-04-27T19:50:20.972Z,4.17
2019-04-27T19:52:50.422Z,4.07
2019-04-27T19:55:19.903Z,4.37
2019-04-27T19:57:49.838Z,4.60
2019-04-27T20:00:29.893Z,4.50
2019-04-27T20:03:01.008Z,4.20
2019-04-27T20:05:32.082Z,3.67
2019-04-27T20:08:03.208Z,4.30
2019-04-27T20:10:34.296Z,4.17
2019-04-27T20:13:03.917Z,4.20
2019-04-27T20:15:33.423Z,3.90
2019-04-27T20:18:02.862Z,4.50
2019-04-27T20:20:32.396Z,4.00
2019-04-27T20:23:01.861Z,4.10
2019-04-27T20:25:31.424Z,3.77
2019-04-27T20:28:00.993Z,4.37
2019-04-27T20:30:31.589Z,4.23
2019-04-27T20:33:01.097Z,4.40
2019-04-27T20:35:30.573Z,3.67
2019-04-27T20:38:00.043Z,4.00
2019-04-27T20:40:31.491Z,3.57
2019-04-27T20:43:01.630Z,3.80
2019-04-27T20:45:32.762Z,4.20
2019-04-27T20:48:02.440Z,3.53
2019-04-27T20:50:32.870Z,3.97
2019-04-27T20:53:04.053Z,3.93
2019-04-27T20:55:33.574Z,3.50
2019-04-27T20:58:03.067Z,3.57
2019-04-27T21:00:33.199Z,4.03
2019-04-27T21:03:04.331Z,3.63
2019-04-27T21:05:51.966Z,3.93
2019-04-27T21:08:26.042Z,3.33
2019-04-27T21:10:55.471Z,3.50
2019-04-27T21:13:25.010Z,3.43
2019-04-27T21:15:54.508Z,3.37
2019-04-27T21:18:23.994Z,3.70
2019-04-27T21:20:53.446Z,3.60
2019-04-27T21:23:22.899Z,3.50
2019-04-27T21:25:53.591Z,3.50
2019-04-27T21:28:23.225Z,3.57
2019-04-27T21:30:52.717Z,3.53
2019-04-27T21:33:22.209Z,3.53
2019-04-27T21:35:51.676Z,3.80
2019-04-27T21:38:21.171Z,4.10
2019-04-27T21:40:50.555Z,2.80
2019-04-27T21:43:21.654Z,3.10
2019-04-27T21:45:51.297Z,3.40
2019-04-27T21:48:21.274Z,3.77
2019-04-27T21:50:51.704Z,3.33
2019-04-27T21:53:25.800Z,3.60
2019-04-27T21:56:11.917Z,3.37
2019-04-27T21:58:41.951Z,3.80
2019-04-27T22:01:16.759Z,3.27
2019-04-27T22:03:46.376Z,3.57
2019-04-27T22:06:15.871Z,4.17
2019-04-27T22:08:45.360Z,3.33
2019-04-27T22:11:14.890Z,3.37
2019-04-27T22:13:44.393Z,4.40
2019-04-27T22:16:13.853Z,3.47
2019-04-27T22:18:43.345Z,3.57
2019-04-27T22:21:13.040Z,3.90
2019-04-27T22:23:52.843Z,3.20
2019-04-27T22:26:22.452Z,3.63
2019-04-27T22:28:52.239Z,4.00
2019-04-27T22:31:21.779Z,3.73
2019-04-27T22:33:54.367Z,3.43
2019-04-27T22:36:22.447Z,3.20
2019-04-27T22:38:52.750Z,3.40
2019-04-27T22:41:26.884Z,3.63
2019-04-27T22:44:13.091Z,3.17
2019-04-27T22:46:44.156Z,3.43
2019-04-27T22:49:13.587Z,3.17
2019-04-27T22:51:43.265Z,3.30
2019-04-27T22:54:12.740Z,3.13
2019-04-27T22:56:43.844Z,3.47
2019-04-27T22:59:23.680Z,4.47
2019-04-27T23:01:54.793Z,3.53
2019-04-27T23:04:25.878Z,3.63
2019-04-27T23:06:55.329Z,3.50
2019-04-27T23:09:24.887Z,3.50
2019-04-27T23:11:54.515Z,4.03
2019-04-27T23:14:23.964Z,3.23
2019-04-27T23:16:55.069Z,3.37
2019-04-27T23:19:24.531Z,3.67
2019-04-27T23:21:56.471Z,3.40
2019-04-27T23:24:25.956Z,3.30
2019-04-27T23:26:55.437Z,3.97
2019-04-27T23:29:24.906Z,3.67
2019-04-27T23:31:56.078Z,3.80
2019-04-27T23:34:25.655Z,4.13
2019-04-27T23:36:55.099Z,3.63
2019-04-27T23:39:24.524Z,3.70
2019-04-27T23:41:53.981Z,3.70
2019-04-27T23:44:23.495Z,3.97
2019-04-27T23:46:52.948Z,4.00
2019-04-27T23:49:22.476Z,3.63
2019-04-27T23:51:53.561Z,3.13
2019-04-27T23:54:23.016Z,3.13
2019-04-27T23:56:52.496Z,3.23
2019-04-27T23:59:25.109Z,3.50
